Time;durP1;ratioP1;P1;durP2;ratioP2;P2;SDS_P1;SDS_P2;PMS_P1;PMS_P2;Temp;Humidity;BMP_temperature;BMP_pressure;BME280_temperature;BME280_humidity;BME280_pressure;Samples;Min_cycle;Max_cycle;Signal;HPM_P1;HPM_P2
2023/04/23 00:03:36;;;;;;;;;;;17.50;38.00;;;16.43;38.30;100370.88;12244675;19;19939;-84
2023/04/23 00:07:37;;;;;;;;;;;17.40;38.00;;;16.19;38.42;100329.84;12249941;19;19974;-84
2023/04/23 00:11:39;;;;;;;;;;;17.30;38.00;;;16.33;38.35;100365.53;12256293;19;19980;-84
2023/04/23 00:15:41;;;;;;;;;;;17.30;38.10;;;16.13;38.57;100339.09;12254512;19;20336;-84
2023/04/23 00:19:43;;;;;;;;;;;17.20;38.10;;;16.31;38.52;100363.06;12254765;19;20341;-84
2023/04/23 00:23:45;;;;;;;;;;;17.20;38.20;;;16.22;38.47;100374.34;12256308;19;19923;-84
2023/04/23 00:27:47;;;;;;;;;;;17.10;38.30;;;15.83;38.74;100304.81;12249652;19;19923;-84
2023/04/23 00:31:48;;;;;;;;;;;17.10;38.30;;;16.02;38.73;100346.25;12254195;19;19929;-84
2023/04/23 00:35:50;;;;;;;;;;;17.10;38.30;;;16.14;38.63;100361.00;12251676;19;19983;-84
2023/04/23 00:39:52;;;;;;;;;;;17.00;38.50;;;15.95;38.67;100343.28;12254405;19;19910;-84
2023/04/23 00:43:56;;;;;;;;;;;17.00;38.40;;;16.04;38.87;100354.81;12252712;19;20290;-84
2023/04/23 00:47:57;;;;;;;;;;;17.00;38.30;;;16.08;38.74;100367.63;12249700;19;19943;-84
2023/04/23 00:52:02;;;;;;;;;;;17.00;38.40;;;16.07;38.79;100349.31;12251300;19;19914;-84
2023/04/23 00:56:04;;;;;;;;;;;17.00;38.30;;;15.97;38.78;100343.16;12251357;19;19919;-84
2023/04/23 01:00:06;;;;;;;;;;;17.00;38.50;;;15.97;38.81;100340.53;12252452;19;20325;-84
2023/04/23 01:04:08;;;;;;;;;;;17.00;38.70;;;16.00;38.94;100342.91;12253030;19;19914;-84
2023/04/23 01:08:13;;;;;;;;;;;17.00;38.50;;;15.90;38.90;100319.97;12248625;19;19918;-84
2023/04/23 01:12:16;;;;;;;;;;;17.00;38.60;;;16.08;38.90;100337.81;12250820;19;19925;-84
2023/04/23 01:16:17;;;;;;;;;;;17.10;38.60;;;16.14;38.95;100345.19;12246702;19;20648;-84
2023/04/23 01:20:19;;;;;;;;;;;17.10;38.90;;;16.06;39.21;100327.41;12252444;19;19919;-84
2023/04/23 01:24:21;;;;;;;;;;;17.10;38.70;;;16.27;38.98;100351.09;12251163;19;19907;-84
2023/04/23 01:28:23;;;;;;;;;;;17.20;38.70;;;16.11;39.03;100325.22;12248346;19;19925;-84
2023/04/23 01:32:24;;;;;;;;;;;17.20;38.60;;;16.24;39.29;100334.72;12249282;19;20004;-84
2023/04/23 01:36:28;;;;;;;;;;;17.30;38.60;;;16.23;39.15;100328.63;12246708;19;19919;-84
2023/04/23 01:40:30;;;;;;;;;;;17.30;38.60;;;16.31;39.13;100333.22;12250423;19;19922;-84
2023/04/23 01:44:32;;;;;;;;;;;17.30;38.60;;;16.43;39.26;100345.34;12249758;19;19919;-84
2023/04/23 01:48:34;;;;;;;;;;;17.40;38.60;;;16.44;39.19;100346.19;12244221;19;19919;-84
2023/04/23 01:52:36;;;;;;;;;;;17.50;38.60;;;16.38;39.24;100322.00;12248294;19;19922;-85
2023/04/23 01:56:37;;;;;;;;;;;17.50;38.70;;;16.41;39.33;100320.09;12248837;19;19918;-84
2023/04/23 02:00:39;;;;;;;;;;;17.50;39.00;;;16.38;39.37;100311.47;12250018;19;20310;-84
2023/04/23 02:04:43;;;;;;;;;;;17.50;38.60;;;16.43;39.23;100315.53;12249360;19;19918;-84
2023/04/23 02:08:45;;;;;;;;;;;17.50;38.60;;;16.55;39.26;100331.13;12248713;19;20606;-84
2023/04/23 02:12:47;;;;;;;;;;;17.60;38.70;;;16.56;39.28;100324.88;12248134;19;19915;-84
2023/04/23 02:16:50;;;;;;;;;;;17.60;38.60;;;16.55;39.35;100317.09;12247995;19;19915;-84
2023/04/23 02:20:52;;;;;;;;;;;17.60;38.60;;;16.32;39.32;100269.84;12248681;19;19919;-84
2023/04/23 02:24:54;;;;;;;;;;;17.60;38.60;;;16.40;39.24;100277.09;12246136;19;20703;-84
2023/04/23 02:28:56;;;;;;;;;;;17.60;38.60;;;16.30;39.57;100265.69;12246432;19;19921;-83
2023/04/23 02:32:57;;;;;;;;;;;17.70;38.60;;;16.45;39.43;100298.63;12245678;19;19975;-84
2023/04/23 02:36:59;;;;;;;;;;;17.70;38.60;;;16.60;39.40;100318.34;12244883;19;19974;-84
2023/04/23 02:41:00;;;;;;;;;;;17.70;38.60;;;16.64;39.65;100311.03;12247066;19;19919;-84
2023/04/23 02:45:03;;;;;;;;;;;17.70;38.70;;;16.64;39.27;100311.03;12245456;19;19926;-84
2023/04/23 02:49:05;;;;;;;;;;;17.70;38.60;;;16.38;39.42;100264.03;12248488;19;19918;-84
2023/04/23 02:53:07;;;;;;;;;;;17.70;38.70;;;16.62;39.57;100297.13;12244285;19;19926;-84
2023/04/23 02:57:09;;;;;;;;;;;17.70;38.70;;;16.66;39.57;100313.50;12243186;19;19922;-84
2023/04/23 03:01:12;;;;;;;;;;;17.70;38.70;;;16.58;39.45;100306.28;12246919;19;19918;-83
2023/04/23 03:05:14;;;;;;;;;;;17.60;38.70;;;16.60;39.38;100299.06;12244763;19;19974;-83
2023/04/23 03:09:16;;;;;;;;;;;17.60;38.80;;;16.54;39.62;100299.59;12245294;19;19918;-83
2023/04/23 03:13:18;;;;;;;;;;;17.60;38.80;;;16.53;39.49;100300.59;12243082;19;19915;-84
2023/04/23 03:17:19;;;;;;;;;;;17.60;38.90;;;16.55;39.62;100306.53;12242692;19;19919;-84
2023/04/23 03:21:21;;;;;;;;;;;17.60;39.00;;;16.30;39.54;100258.59;12247465;19;19911;-84
2023/04/23 03:25:24;;;;;;;;;;;17.60;39.30;;;16.46;39.62;100291.53;12244161;19;19933;-84
2023/04/23 03:29:27;;;;;;;;;;;17.50;40.00;;;16.30;39.52;100282.31;12244317;19;19915;-84
2023/04/23 03:33:29;;;;;;;;;;;17.50;39.70;;;16.31;39.69;100288.41;12243839;19;19929;-84
2023/04/23 03:37:30;;;;;;;;;;;17.40;41.30;;;16.19;39.67;100282.41;12241186;19;19926;-84
2023/04/23 03:41:32;;;;;;;;;;;17.30;40.20;;;16.09;39.98;100263.09;12248780;19;19940;-83
2023/04/23 03:45:35;;;;;;;;;;;17.20;39.90;;;16.06;40.04;100294.97;12255192;19;19926;-83
2023/04/23 03:49:39;;;;;;;;;;;17.20;40.30;;;16.04;39.88;100292.47;12255504;19;19926;-83
2023/04/23 03:53:41;;;;;;;;;;;17.10;41.00;;;15.99;39.74;100283.28;12252574;19;19934;-83
2023/04/23 03:58:04;;;;;;;;;;;17.00;41.10;;;15.84;40.05;100286.25;12251147;19;20333;-83
2023/04/23 04:02:17;;;;;;;;;;;16.90;40.40;;;15.87;40.01;100293.88;12254541;19;20349;-83
2023/04/23 04:06:18;;;;;;;;;;;16.90;40.90;;;15.88;40.11;100298.19;12254146;19;20026;-83
2023/04/23 04:10:20;;;;;;;;;;;16.90;40.80;;;15.85;40.10;100300.25;12254678;19;19918;-82
2023/04/23 04:14:22;;;;;;;;;;;16.80;40.60;;;15.60;40.00;100262.78;12251243;19;19974;-84
2023/04/23 04:18:24;;;;;;;;;;;16.80;40.70;;;15.74;40.09;100290.59;12252142;19;19943;-83
2023/04/23 04:22:26;;;;;;;;;;;16.80;40.80;;;15.78;40.29;100299.94;12254289;19;19918;-83
2023/04/23 04:26:28;;;;;;;;;;;16.70;40.80;;;15.74;40.39;100293.25;12252731;19;19933;-83
2023/04/23 04:30:29;;;;;;;;;;;16.70;40.90;;;15.52;40.38;100270.47;12256157;19;19983;-83
2023/04/23 04:34:31;;;;;;;;;;;16.70;40.90;;;15.58;40.31;100275.25;12252053;19;19922;-83
2023/04/23 04:38:33;;;;;;;;;;;16.70;41.00;;;15.76;40.49;100309.75;12250528;19;19911;-83
2023/04/23 04:42:35;;;;;;;;;;;16.70;41.00;;;15.67;40.67;100297.34;12255360;19;20306;-83
2023/04/23 04:46:39;;;;;;;;;;;16.70;41.10;;;15.69;40.64;100308.59;12251889;19;19923;-83
2023/04/23 04:50:41;;;;;;;;;;;16.60;41.20;;;15.66;40.60;100306.19;12254018;19;19914;-83
2023/04/23 04:54:42;;;;;;;;;;;16.60;41.20;;;15.64;40.70;100316.03;12252025;19;19994;-83
2023/04/23 04:58:44;;;;;;;;;;;16.60;41.30;;;15.60;40.59;100298.78;12249844;19;20361;-83
2023/04/23 05:02:46;;;;;;;;;;;16.70;41.20;;;15.55;40.80;100290.44;12253172;19;19915;-83
2023/04/23 05:06:48;;;;;;;;;;;16.60;41.30;;;15.64;40.87;100313.38;12250980;19;20349;-84
2023/04/23 05:10:50;;;;;;;;;;;16.60;41.40;;;15.58;40.87;100301.56;12254138;19;19943;-83
2023/04/23 05:14:52;;;;;;;;;;;16.60;41.50;;;15.61;40.99;100296.06;12249177;19;19919;-83
2023/04/23 05:18:54;;;;;;;;;;;16.60;41.60;;;15.64;40.97;100294.97;12251701;19;20011;-84
2023/04/23 05:22:58;;;;;;;;;;;16.70;41.60;;;15.68;40.94;100299.84;12256466;19;19948;-84
2023/04/23 05:27:00;;;;;;;;;;;16.70;41.70;;;15.81;41.22;100317.28;12249540;19;19921;-84
2023/04/23 05:31:02;;;;;;;;;;;16.80;41.70;;;15.86;40.99;100323.81;12253877;19;20255;-84
2023/04/23 05:35:04;;;;;;;;;;;16.80;41.70;;;15.64;41.20;100280.00;12251947;19;19923;-84
2023/04/23 05:39:06;;;;;;;;;;;16.80;41.80;;;15.85;41.21;100314.25;12250083;19;19914;-84
2023/04/23 05:43:08;;;;;;;;;;;16.90;41.90;;;15.88;41.40;100308.72;12251068;19;19918;-83
2023/04/23 05:47:10;;;;;;;;;;;16.90;41.80;;;15.98;41.54;100319.31;12246817;19;20237;-83
2023/04/23 05:51:12;;;;;;;;;;;17.00;41.80;;;15.97;41.45;100301.03;12251421;19;19919;-85
2023/04/23 05:55:19;;;;;;;;;;;17.00;41.90;;;15.94;41.42;100291.56;12255702;19;19923;-83
2023/04/23 05:59:21;;;;;;;;;;;17.10;42.10;;;16.12;41.58;100316.34;12249105;19;19947;-84
2023/04/23 06:03:22;;;;;;;;;;;17.20;42.10;;;16.22;41.61;100319.03;12243315;19;19911;-83
2023/04/23 06:07:24;;;;;;;;;;;17.30;42.20;;;16.23;41.63;100309.31;12247486;19;19914;-83
2023/04/23 06:11:26;;;;;;;;;;;17.40;41.90;;;16.43;41.54;100328.69;12249426;19;19941;-83
2023/04/23 06:15:27;;;;;;;;;;;17.40;42.20;;;16.15;41.55;100273.94;12249196;19;19915;-84
2023/04/23 06:19:29;;;;;;;;;;;17.50;42.30;;;16.28;41.62;100288.69;12249082;19;19918;-84
2023/04/23 06:23:31;;;;;;;;;;;17.60;42.30;;;16.52;41.65;100322.63;12249527;19;19949;-84
2023/04/23 06:27:32;;;;;;;;;;;17.60;42.30;;;16.65;41.72;100327.69;12247892;19;19939;-83
2023/04/23 06:31:40;;;;;;;;;;;17.70;42.20;;;16.63;41.66;100319.06;12248386;19;19925;-84
2023/04/23 06:35:42;;;;;;;;;;;17.70;42.30;;;16.73;41.82;100323.41;12251343;19;19923;-87
2023/04/23 06:39:44;;;;;;;;;;;17.80;42.40;;;16.78;41.98;100320.41;12250919;19;20246;-85
2023/04/23 06:43:47;;;;;;;;;;;17.90;42.80;;;16.83;41.98;100326.09;12252642;19;19926;-86
2023/04/23 06:47:56;;;;;;;;;;;17.90;42.40;;;16.87;41.61;100316.09;12245009;19;20339;-86
2023/04/23 06:51:58;;;;;;;;;;;18.00;42.50;;;16.97;42.08;100317.78;12248697;19;19922;-86
2023/04/23 06:56:00;;;;;;;;;;;18.10;42.80;;;17.04;42.10;100326.00;12248477;19;19919;-86
2023/04/23 07:00:01;;;;;;;;;;;18.10;42.70;;;16.99;42.04;100312.41;12240001;19;19919;-85
2023/04/23 07:04:10;;;;;;;;;;;18.10;42.50;;;17.10;42.11;100320.19;12247208;19;20305;-86
2023/04/23 07:08:13;;;;;;;;;;;18.20;42.40;;;17.15;42.05;100320.63;12246782;19;19922;-86
2023/04/23 07:12:15;;;;;;;;;;;18.30;42.50;;;17.20;42.17;100328.94;12247793;19;19933;-86
2023/04/23 07:16:16;;;;;;;;;;;18.30;42.60;;;17.29;42.19;100323.81;12252942;19;19919;-86
2023/04/23 07:20:18;;;;;;;;;;;18.40;42.60;;;17.33;42.32;100322.56;12259671;19;19933;-85
2023/04/23 07:24:20;;;;;;;;;;;18.50;42.90;;;17.38;42.13;100329.09;12257608;19;19986;-88
2023/04/23 07:28:21;;;;;;;;;;;18.50;43.10;;;17.44;42.35;100330.34;12239413;19;19915;-87
2023/04/23 07:32:26;;;;;;;;;;;18.60;43.30;;;17.48;42.21;100331.75;12250894;19;19915;-87
2023/04/23 07:36:28;;;;;;;;;;;18.60;42.90;;;17.54;42.39;100344.38;12238816;19;19966;-87
2023/04/23 07:40:35;;;;;;;;;;;18.70;42.90;;;17.34;42.37;100301.31;12248798;19;20280;-87
2023/04/23 07:44:40;;;;;;;;;;;18.70;43.00;;;17.24;42.35;100289.91;12254310;19;20598;-87
2023/04/23 07:48:53;;;;;;;;;;;18.70;43.00;;;17.65;42.50;100353.97;12248385;19;20347;-87
2023/04/23 07:52:55;;;;;;;;;;;18.80;43.20;;;17.67;42.42;100363.41;12246212;19;19911;-86
2023/04/23 07:56:58;;;;;;;;;;;18.80;43.40;;;17.55;42.44;100346.06;12251091;19;19918;-86
2023/04/23 08:01:03;;;;;;;;;;;18.80;43.50;;;17.34;42.62;100311.88;12251191;19;20442;-86
2023/04/23 08:05:06;;;;;;;;;;;18.80;43.70;;;17.65;42.70;100365.34;12257019;19;19982;-86
2023/04/23 08:09:10;;;;;;;;;;;18.80;43.60;;;17.66;42.70;100367.03;12259848;19;19910;-86
2023/04/23 08:13:22;;;;;;;;;;;18.80;43.60;;;17.61;42.33;100358.69;12255547;19;19975;-86
2023/04/23 08:17:29;;;;;;;;;;;18.80;43.40;;;17.63;42.87;100362.03;12247849;19;19978;-86
2023/04/23 08:21:32;;;;;;;;;;;18.70;43.50;;;17.66;42.75;100366.19;12248388;19;19915;-86
2023/04/23 08:25:48;;;;;;;;;;;18.70;43.50;;;17.65;42.69;100370.63;12238877;19;19953;-86
2023/04/23 08:29:53;;;;;;;;;;;18.70;43.60;;;17.56;43.02;100344.25;12253672;19;19915;-87
2023/04/23 08:33:55;;;;;;;;;;;18.80;43.70;;;17.69;42.89;100356.19;12252023;19;19926;-86
2023/04/23 08:37:56;;;;;;;;;;;18.80;43.90;;;17.78;43.02;100369.53;12245807;19;19911;-85
2023/04/23 08:42:04;;;;;;;;;;;18.80;43.70;;;17.66;43.10;100351.19;12256816;19;19930;-85
2023/04/23 08:46:09;;;;;;;;;;;18.90;44.00;;;17.68;43.01;100351.88;12251930;19;19919;-87
2023/04/23 08:50:12;;;;;;;;;;;18.80;44.00;;;17.82;43.11;100368.28;12248509;19;19952;-87
2023/04/23 08:54:18;;;;;;;;;;;18.80;44.00;;;17.86;43.10;100367.06;12246853;19;19926;-86
2023/04/23 08:58:20;;;;;;;;;;;18.90;44.80;;;17.85;43.04;100360.13;12248232;19;19947;-87
2023/04/23 09:02:21;;;;;;;;;;;18.90;44.80;;;17.86;43.22;100359.97;12250861;19;19938;-86
2023/04/23 09:06:23;;;;;;;;;;;18.90;44.60;;;17.99;43.20;100378.16;12246897;19;20358;-86
2023/04/23 09:10:24;;;;;;;;;;;18.90;45.10;;;18.00;43.36;100379.81;12250637;19;19923;-86
2023/04/23 09:14:26;;;;;;;;;;;19.00;46.70;;;18.08;43.52;100387.03;12250304;19;19913;-86
2023/04/23 09:18:27;;;;;;;;;;;19.00;45.50;;;17.81;43.33;100334.94;12246514;19;20306;-86
2023/04/23 09:22:54;;;;;;;;;;;19.10;45.20;;;18.14;43.53;100379.38;12253885;19;19921;-86
2023/04/23 09:26:57;;;;;;;;;;;19.10;46.60;;;18.14;43.64;100368.81;12249859;19;19930;-86
2023/04/23 09:30:59;;;;;;;;;;;19.20;45.30;;;18.16;43.59;100357.28;12253137;19;19907;-86
2023/04/23 09:35:05;;;;;;;;;;;19.20;45.20;;;18.16;43.79;100344.06;12248098;19;20250;-87
2023/04/23 09:39:14;;;;;;;;;;;19.20;45.90;;;18.28;43.51;100362.25;12245762;19;19911;-87
2023/04/23 09:43:15;;;;;;;;;;;19.30;46.30;;;18.42;43.76;100368.88;12248482;19;19911;-87
2023/04/23 09:47:17;;;;;;;;;;;19.40;45.70;;;18.45;43.77;100360.66;12248443;19;19919;-89
2023/04/23 09:51:19;;;;;;;;;;;19.50;45.90;;;18.42;43.72;100342.44;12247328;19;20002;-86
2023/04/23 09:55:29;;;;;;;;;;;19.50;45.20;;;18.57;43.71;100363.94;12245826;19;19915;-85
2023/04/23 09:59:30;;;;;;;;;;;19.60;45.40;;;18.58;43.59;100360.34;12246487;19;19926;-85
2023/04/23 10:03:32;;;;;;;;;;;19.60;45.00;;;18.55;43.95;100348.25;12252665;19;19926;-86
2023/04/23 10:07:34;;;;;;;;;;;19.60;45.30;;;18.58;43.78;100347.94;12247451;19;19933;-86
2023/04/23 10:11:35;;;;;;;;;;;19.70;45.30;;;18.60;43.98;100370.75;12250390;19;20257;-86
2023/04/23 10:15:37;;;;;;;;;;;19.60;45.70;;;18.49;43.93;100369.97;12250903;19;19921;-85
2023/04/23 10:19:41;;;;;;;;;;;19.70;45.20;;;18.39;43.99;100369.19;12250632;19;19941;-85
2023/04/23 10:23:46;;;;;;;;;;;19.60;44.80;;;18.41;43.80;100393.66;12245029;19;19923;-86
2023/04/23 10:27:48;;;;;;;;;;;19.60;46.30;;;18.38;43.99;100406.31;12246216;19;20276;-87
2023/04/23 10:31:51;;;;;;;;;;;19.50;45.40;;;18.10;44.00;100380.66;12245601;19;19915;-86
2023/04/23 10:36:01;;;;;;;;;;;19.40;45.30;;;18.27;44.16;100410.78;12243364;19;20012;-86
2023/04/23 10:40:11;;;;;;;;;;;19.30;45.20;;;18.24;44.17;100410.25;12245844;19;20323;-87
2023/04/23 10:44:17;;;;;;;;;;;19.30;45.30;;;18.23;44.08;100412.06;12248312;19;19998;-85
2023/04/23 10:48:19;;;;;;;;;;;19.30;45.80;;;18.13;44.16;100390.94;12245067;19;19944;-85
2023/04/23 10:52:20;;;;;;;;;;;19.20;45.30;;;18.24;44.18;100407.63;12246690;19;19919;-85
2023/04/23 10:56:22;;;;;;;;;;;19.20;45.60;;;18.21;44.24;100402.63;12246121;19;20372;-86
2023/04/23 11:00:25;;;;;;;;;;;19.30;45.40;;;18.27;44.47;100417.91;12247232;19;19949;-86
2023/04/23 11:04:28;;;;;;;;;;;19.30;46.00;;;18.37;44.40;100424.00;12247838;19;20353;-85
2023/04/23 11:08:31;;;;;;;;;;;19.30;45.40;;;18.39;44.24;100431.78;12244653;19;19942;-86
2023/04/23 11:12:32;;;;;;;;;;;19.30;45.30;;;18.38;44.40;100424.84;12247424;19;19919;-84
2023/04/23 11:16:35;;;;;;;;;;;19.40;45.30;;;18.34;44.14;100421.66;12248039;19;19938;-85
2023/04/23 11:20:37;;;;;;;;;;;19.30;45.30;;;18.08;44.44;100381.75;12246862;19;19963;-84
2023/04/23 11:24:44;;;;;;;;;;;19.30;45.10;;;18.12;44.52;100397.19;12247848;19;20392;-84
2023/04/23 11:28:46;;;;;;;;;;;19.30;44.90;;;18.24;44.25;100415.53;12247272;19;19919;-86
2023/04/23 11:32:50;;;;;;;;;;;19.30;44.90;;;18.10;44.34;100385.94;12242498;19;20352;-87
2023/04/23 11:36:56;;;;;;;;;;;19.30;44.90;;;18.37;44.37;100424.00;12242664;19;19922;-88
2023/04/23 11:40:57;;;;;;;;;;;19.30;45.10;;;18.41;44.34;100424.53;12247422;19;19907;-86
2023/04/23 11:44:58;;;;;;;;;;;19.40;45.80;;;18.28;44.44;100401.91;12244914;19;19914;-87
2023/04/23 11:49:00;;;;;;;;;;;19.40;45.10;;;18.33;44.36;100419.97;12242305;19;19930;-86
2023/04/23 11:53:06;;;;;;;;;;;19.40;45.10;;;18.39;44.45;100410.63;12245775;19;19919;-86
2023/04/23 11:57:08;;;;;;;;;;;19.40;44.80;;;18.46;44.64;100412.56;12250040;19;19985;-86
2023/04/23 12:01:13;;;;;;;;;;;19.50;45.10;;;18.53;44.66;100418.13;12259888;19;20439;-86
2023/04/23 12:05:15;;;;;;;;;;;19.50;45.60;;;18.65;44.48;100413.47;12265887;19;19922;-86
2023/04/23 12:09:19;;;;;;;;;;;19.60;46.20;;;18.55;44.53;100366.75;12263118;19;19911;-86
2023/04/23 12:13:23;;;;;;;;;;;19.70;45.40;;;18.83;44.81;100401.19;12254578;19;20248;-87
2023/04/23 12:17:25;;;;;;;;;;;19.90;45.00;;;18.83;44.50;100393.25;12252745;19;19918;-86
2023/04/23 12:21:28;;;;;;;;;;;20.00;44.90;;;19.02;44.64;100429.38;12256834;19;20018;-86
2023/04/23 12:25:30;;;;;;;;;;;20.10;44.70;;;18.99;44.55;100429.69;12256892;19;19927;-86
2023/04/23 12:29:32;;;;;;;;;;;20.10;44.90;;;18.97;44.80;100421.88;12254150;19;19914;-86
2023/04/23 12:33:33;;;;;;;;;;;20.10;44.50;;;19.08;44.76;100435.91;12254546;19;20257;-86
2023/04/23 12:37:36;;;;;;;;;;;20.20;44.30;;;18.86;44.74;100390.31;12254351;19;19970;-86
2023/04/23 12:41:37;;;;;;;;;;;20.20;44.30;;;19.07;44.72;100436.88;12256962;19;19938;-87
2023/04/23 12:45:39;;;;;;;;;;;20.20;44.20;;;19.19;44.47;100443.63;12256480;19;19911;-87
2023/04/23 12:49:41;;;;;;;;;;;20.30;44.30;;;19.17;44.83;100435.88;12255671;19;20249;-87
2023/04/23 12:53:43;;;;;;;;;;;20.30;44.20;;;19.29;44.60;100444.44;12253976;19;20338;-86
2023/04/23 12:57:44;;;;;;;;;;;20.40;44.30;;;19.20;44.64;100427.63;12249493;19;20278;-87
2023/04/23 13:01:46;;;;;;;;;;;20.40;44.40;;;19.15;44.57;100397.28;12255794;19;20379;-87
2023/04/23 13:05:47;;;;;;;;;;;20.40;44.40;;;19.09;44.75;100381.97;12252572;19;19931;-86
2023/04/23 13:09:49;;;;;;;;;;;20.40;44.50;;;19.31;44.70;100404.53;12255861;19;19974;-88
2023/04/23 13:13:51;;;;;;;;;;;20.50;44.30;;;19.50;44.43;100422.97;12252457;19;19918;-87
2023/04/23 13:17:52;;;;;;;;;;;20.50;44.30;;;19.44;44.85;100403.22;12254554;19;19932;-87
2023/04/23 13:21:54;;;;;;;;;;;20.60;44.10;;;19.56;44.61;100405.66;12256880;19;19922;-87
2023/04/23 13:25:55;;;;;;;;;;;20.60;44.00;;;19.66;44.63;100396.66;12252528;19;19926;-87
2023/04/23 13:29:57;;;;;;;;;;;20.70;44.00;;;19.70;44.72;100399.84;12255331;19;20364;-87
2023/04/23 13:34:01;;;;;;;;;;;20.80;43.90;;;19.84;44.57;100415.19;12250028;19;19926;-87
2023/04/23 13:38:03;;;;;;;;;;;20.90;43.80;;;19.90;44.60;100389.91;12251608;19;19970;-87
2023/04/23 13:42:04;;;;;;;;;;;21.00;43.70;;;19.96;44.53;100396.44;12255097;19;19919;-87
2023/04/23 13:46:06;;;;;;;;;;;21.00;43.50;;;19.81;44.60;100351.91;12252840;19;19956;-87
2023/04/23 13:50:09;;;;;;;;;;;21.10;43.40;;;20.11;44.57;100392.22;12252839;19;19922;-87
2023/04/23 13:54:10;;;;;;;;;;;21.20;43.50;;;20.21;44.64;100389.47;12248811;19;19918;-86
2023/04/23 13:58:12;;;;;;;;;;;21.30;43.50;;;20.27;44.58;100370.28;12249552;19;19918;-86
2023/04/23 14:02:14;;;;;;;;;;;21.40;43.80;;;20.35;44.43;100383.59;12250717;19;19922;-86
2023/04/23 14:06:15;;;;;;;;;;;21.50;43.20;;;20.41;44.38;100376.81;12248944;19;20344;-87
2023/04/23 14:10:17;;;;;;;;;;;21.50;42.80;;;20.46;44.28;100378.00;12250983;19;19915;-87
2023/04/23 14:14:19;;;;;;;;;;;21.60;42.60;;;20.43;44.40;100362.41;12250020;19;19919;-87
2023/04/23 14:18:20;;;;;;;;;;;21.60;42.60;;;20.48;44.68;100359.31;12248192;19;19923;-87
2023/04/23 14:22:21;;;;;;;;;;;21.70;42.60;;;20.48;44.46;100351.34;12253897;19;20357;-87
2023/04/23 14:26:32;;;;;;;;;;;21.70;42.50;;;20.62;44.12;100352.59;12247366;19;19956;-87
2023/04/23 14:30:34;;;;;;;;;;;21.80;42.50;;;20.67;44.04;100369.72;12253157;19;19918;-87
2023/04/23 14:34:35;;;;;;;;;;;21.80;42.50;;;20.44;44.49;100316.34;12248162;19;19910;-86
2023/04/23 14:38:36;;;;;;;;;;;21.80;42.60;;;20.71;44.27;100360.44;12246693;19;19999;-86
2023/04/23 14:42:38;;;;;;;;;;;21.80;42.40;;;20.65;44.15;100328.41;12251180;19;20618;-87
2023/04/23 14:46:40;;;;;;;;;;;21.80;42.50;;;20.70;44.26;100332.22;12250044;19;20444;-87
2023/04/23 14:50:41;;;;;;;;;;;21.90;42.50;;;20.84;44.03;100341.41;12252170;19;19919;-87
2023/04/23 14:54:44;;;;;;;;;;;21.90;42.50;;;20.91;43.93;100328.34;12247301;19;20262;-87
2023/04/23 14:58:45;;;;;;;;;;;22.00;42.50;;;20.94;44.14;100331.47;12250375;19;20341;-88
2023/04/23 15:02:46;;;;;;;;;;;22.00;42.50;;;20.89;43.78;100315.22;12249523;19;19922;-88
2023/04/23 15:06:48;;;;;;;;;;;22.10;42.70;;;20.96;44.09;100315.41;12247025;19;19914;-86
2023/04/23 15:10:49;;;;;;;;;;;22.10;42.40;;;20.96;43.85;100304.78;12250722;19;19934;-87
2023/04/23 15:14:53;;;;;;;;;;;22.10;42.30;;;21.00;43.77;100308.75;12243504;19;19911;-87
2023/04/23 15:18:56;;;;;;;;;;;22.20;42.20;;;20.92;44.17;100301.59;12246869;19;19918;-87
2023/04/23 15:22:57;;;;;;;;;;;22.10;42.20;;;20.93;43.98;100299.81;12250228;19;19922;-87
2023/04/23 15:27:00;;;;;;;;;;;22.10;42.20;;;21.00;43.74;100316.72;12245081;19;19939;-87
2023/04/23 15:31:03;;;;;;;;;;;22.10;41.90;;;20.98;43.46;100308.09;12247507;19;20482;-87
2023/04/23 15:35:05;;;;;;;;;;;22.10;42.00;;;21.02;43.54;100314.75;12245248;19;20014;-88
2023/04/23 15:39:07;;;;;;;;;;;22.10;42.20;;;20.98;43.59;100297.47;12259763;19;19946;-88
2023/04/23 15:43:12;;;;;;;;;;;22.00;42.10;;;20.94;43.79;100293.50;12257588;19;19907;-87
2023/04/23 15:47:13;;;;;;;;;;;22.00;41.70;;;20.93;43.87;100300.63;12258570;19;19919;-87
2023/04/23 15:51:15;;;;;;;;;;;22.00;42.00;;;20.82;43.80;100286.81;12259365;19;19931;-87
2023/04/23 15:55:17;;;;;;;;;;;22.00;42.10;;;20.88;43.84;100288.84;12254767;19;20649;-87
2023/04/23 15:59:18;;;;;;;;;;;21.90;42.20;;;20.93;43.70;100297.16;12259035;19;19923;-89
2023/04/23 16:03:20;;;;;;;;;;;22.00;42.20;;;20.99;43.40;100305.28;12258729;19;20342;-88
2023/04/23 16:07:21;;;;;;;;;;;22.00;42.20;;;20.89;43.81;100278.03;12255157;19;19943;-87
2023/04/23 16:11:26;;;;;;;;;;;22.00;42.20;;;20.78;43.54;100250.00;12259906;19;19919;-87
2023/04/23 16:15:27;;;;;;;;;;;22.00;42.20;;;20.94;43.54;100256.34;12257752;19;19914;-87
2023/04/23 16:19:29;;;;;;;;;;;22.00;42.20;;;20.98;43.60;100260.31;12254949;19;19922;-86
2023/04/23 16:23:31;;;;;;;;;;;22.00;42.20;;;21.00;43.30;100253.00;12259639;19;19926;-87
2023/04/23 16:27:32;;;;;;;;;;;22.00;42.20;;;21.06;43.65;100262.16;12254969;19;19915;-87
2023/04/23 16:31:34;;;;;;;;;;;22.10;42.20;;;21.07;43.22;100261.16;12257990;19;19930;-88
2023/04/23 16:35:35;;;;;;;;;;;22.10;42.10;;;21.06;43.47;100252.34;12257189;19;20266;-88
2023/04/23 16:39:37;;;;;;;;;;;22.10;42.00;;;21.03;43.41;100246.53;12255316;19;19921;-87
2023/04/23 16:43:39;;;;;;;;;;;22.10;41.90;;;21.05;43.40;100250.69;12256842;19;19937;-87
2023/04/23 16:47:42;;;;;;;;;;;22.10;42.00;;;20.99;43.17;100246.06;12250069;19;19919;-87
2023/04/23 16:51:43;;;;;;;;;;;22.00;42.00;;;20.97;43.45;100240.06;12255399;19;19925;-88
2023/04/23 16:55:45;;;;;;;;;;;22.00;41.90;;;20.94;43.38;100238.56;12252719;19;19956;-88
2023/04/23 16:59:46;;;;;;;;;;;22.00;41.80;;;20.95;43.45;100244.72;12254923;19;19914;-87
2023/04/23 17:03:48;;;;;;;;;;;22.00;41.90;;;20.93;43.55;100236.09;12253842;19;19915;-87
2023/04/23 17:07:52;;;;;;;;;;;21.90;42.00;;;20.94;43.42;100237.75;12250276;19;19911;-86
2023/04/23 17:11:55;;;;;;;;;;;21.90;41.90;;;20.83;43.37;100219.50;12252124;19;19919;-87
2023/04/23 17:15:57;;;;;;;;;;;21.90;41.90;;;20.88;42.92;100233.09;12254043;19;20266;-87
2023/04/23 17:19:59;;;;;;;;;;;21.80;41.90;;;20.63;42.96;100198.56;12249347;19;19978;-87
2023/04/23 17:24:00;;;;;;;;;;;21.80;41.90;;;20.69;43.21;100219.13;12253092;19;20324;-86
2023/04/23 17:28:02;;;;;;;;;;;21.70;41.90;;;20.67;42.95;100225.59;12248823;19;19947;-87
2023/04/23 17:32:03;;;;;;;;;;;21.70;41.90;;;20.53;42.84;100213.75;12252123;19;19979;-88
2023/04/23 17:36:05;;;;;;;;;;;21.50;41.80;;;20.44;43.08;100199.66;12250449;19;21499;-88
2023/04/23 17:40:08;;;;;;;;;;;21.40;41.90;;;20.31;43.08;100189.50;12251939;19;20329;-87
2023/04/23 17:44:10;;;;;;;;;;;21.40;42.00;;;20.09;42.92;100166.19;12253846;19;19923;-87
2023/04/23 17:48:11;;;;;;;;;;;21.30;42.10;;;19.99;43.18;100161.03;12250458;19;20238;-87
2023/04/23 17:52:13;;;;;;;;;;;21.20;42.00;;;20.11;43.24;100191.56;12250227;19;19907;-87
2023/04/23 17:56:15;;;;;;;;;;;21.10;42.00;;;19.95;43.17;100172.13;12250042;19;19926;-87
2023/04/23 18:00:17;;;;;;;;;;;21.00;42.10;;;20.01;43.10;100197.97;12253035;19;19911;-87
2023/04/23 18:04:18;;;;;;;;;;;21.00;42.20;;;19.90;43.20;100188.47;12250798;19;19922;-88
2023/04/23 18:08:20;;;;;;;;;;;20.90;42.10;;;19.75;43.30;100180.31;12248758;19;19911;-87
2023/04/23 18:12:22;;;;;;;;;;;20.80;42.20;;;19.68;43.13;100187.22;12251388;19;19919;-87